Terminal Aerodrome Forecast
Issued by NWS Binghamton, NY

Home | Current Version | Previous Version | Text Only | Print | Product List | Glossary On
Versions: 1 2 3 4 5 6 7 8 9 10 11 12 13 14 15 16 17 18 19 20
000
FTUS41 KBGM 261700
TAFBGM
TAF
KBGM 261737Z 2618/2718 VRB04KT 3/4SM -SHRA BR VV003
     FM262000 VRB04KT 1 1/2SM -RA BR OVC005
      TEMPO 2622/2624 1SM -SNRA BR
     FM270000 32005KT 1SM -SN BR OVC005
     FM270300 32005KT 5SM -SHSN BR OVC008
     FM271400 32008KT P6SM OVC015=

USA.gov is the U.S. government's official web portal to all federal, state and local government web resources and services.